Northlake, Illinois
Current Conditions -  °F | °C
As of 2:51 PM on Monday 22 Dec 2014 (Local Time) from KORD Reporting Station
Light Rain Light Rain  
Wind Chill: 28°   Ceiling: 800
Heat Index: 36°   Visibility: 3mi
Dew Point: 34°   Wind: 13mph
Humidity: 93%   Direction: 100°E
Pressure: 29.71"   Gusts: NA
Location:  41.91°N, 87.9°W
Report Text: KORD 222051Z 10011KT 3SM -RA BR OVC008 02/01 A2971 RMK AO2 SLP068 P0004 60006 T00220011 58015
Loading
Personal Weather Stations






























Interactive Weather Map New forecast layout! Learn more

10-Day Weather Forecast

Advertisements
Track Severe Weather on mobile